createdAt,value
2022-10-15T00:01:11.210Z,11.80
2022-10-15T00:03:39.446Z,7.70
2022-10-15T00:06:08.007Z,7.38
2022-10-15T00:08:35.053Z,8.50
2022-10-15T00:11:13.349Z,9.88
2022-10-15T00:13:40.367Z,23.20
2022-10-15T00:16:12.351Z,9.30
2022-10-15T00:18:40.018Z,8.90
2022-10-15T00:21:11.467Z,8.50
2022-10-15T00:23:38.250Z,11.07
2022-10-15T00:26:10.564Z,7.68
2022-10-15T00:28:37.398Z,7.57
2022-10-15T00:31:09.506Z,11.00
2022-10-15T00:33:36.649Z,9.57
2022-10-15T00:36:10.939Z,9.90
2022-10-15T00:38:37.940Z,10.70
2022-10-15T00:41:06.191Z,10.73
2022-10-15T00:43:46.369Z,11.52
2022-10-15T00:46:24.459Z,9.38
2022-10-15T00:49:01.204Z,9.98
2022-10-15T00:51:38.836Z,9.35
2022-10-15T00:54:05.855Z,8.85
2022-10-15T00:56:33.587Z,8.48
2022-10-15T00:59:00.595Z,8.88
2022-10-15T01:01:27.420Z,9.18
2022-10-15T01:03:55.852Z,11.30
2022-10-15T01:06:22.916Z,10.32
2022-10-15T01:08:49.609Z,8.80
2022-10-15T01:11:52.342Z,8.60
2022-10-15T01:14:31.664Z,12.02
2022-10-15T01:16:58.242Z,13.05
2022-10-15T01:19:47.390Z,7.00
2022-10-15T01:22:46.327Z,8.15
2022-10-15T01:25:41.510Z,10.00
2022-10-15T01:28:38.067Z,7.85
2022-10-15T01:31:29.766Z,11.25
2022-10-15T01:36:52.989Z,17.42
2022-10-15T01:39:28.059Z,11.70
2022-10-15T01:41:57.964Z,11.00
2022-10-15T01:44:39.059Z,9.43
2022-10-15T01:47:08.998Z,9.30
2022-10-15T01:49:39.531Z,8.90
2022-10-15T01:52:13.333Z,9.95
2022-10-15T01:54:40.793Z,12.32
2022-10-15T01:57:08.198Z,10.93
2022-10-15T01:59:35.144Z,12.85
2022-10-15T02:02:01.918Z,9.82
2022-10-15T02:04:30.420Z,10.07
2022-10-15T02:07:07.773Z,8.20
2022-10-15T02:09:43.083Z,9.57
2022-10-15T02:12:18.599Z,10.82
2022-10-15T02:15:10.982Z,12.90
2022-10-15T02:17:43.498Z,9.20
2022-10-15T02:20:23.201Z,15.48
2022-10-15T02:22:56.846Z,16.27
2022-10-15T02:25:24.793Z,12.32
2022-10-15T02:27:53.059Z,13.02
2022-10-15T02:30:20.213Z,10.95
2022-10-15T02:32:50.644Z,12.85
2022-10-15T02:35:17.333Z,15.85
2022-10-15T02:37:47.194Z,12.27
2022-10-15T02:40:13.948Z,10.27
2022-10-15T02:42:40.730Z,13.60
2022-10-15T02:45:08.049Z,9.68
2022-10-15T02:47:34.846Z,13.77
2022-10-15T02:50:01.672Z,17.13
2022-10-15T02:52:28.288Z,13.75
2022-10-15T02:54:54.934Z,12.57
2022-10-15T02:57:21.959Z,14.02
2022-10-15T02:59:48.802Z,11.48
2022-10-15T03:02:18.497Z,13.57
2022-10-15T03:04:46.156Z,11.65
2022-10-15T03:07:12.824Z,13.63
2022-10-15T03:09:39.516Z,17.88
2022-10-15T03:12:06.436Z,15.25
2022-10-15T03:14:33.080Z,14.68
2022-10-15T03:16:59.704Z,13.77
2022-10-15T03:19:26.386Z,19.27
2022-10-15T03:21:53.000Z,16.45
2022-10-15T03:24:19.636Z,12.38
2022-10-15T03:26:46.348Z,13.73
2022-10-15T03:29:13.063Z,10.88
2022-10-15T03:31:39.752Z,12.18
2022-10-15T03:34:06.470Z,14.18
2022-10-15T03:36:33.165Z,18.55
2022-10-15T03:38:59.797Z,15.50
2022-10-15T03:41:26.794Z,13.07
2022-10-15T03:43:53.449Z,14.95
2022-10-15T03:46:20.133Z,15.10
2022-10-15T03:48:50.674Z,13.98
2022-10-15T03:51:21.986Z,20.33
2022-10-15T03:53:51.354Z,16.13
2022-10-15T03:56:17.971Z,14.63
2022-10-15T03:58:44.670Z,13.80
2022-10-15T04:01:12.948Z,17.42
2022-10-15T04:03:40.250Z,15.43
2022-10-15T04:06:07.220Z,14.98
2022-10-15T04:08:34.104Z,14.70
2022-10-15T04:11:00.918Z,15.82
2022-10-15T04:13:28.491Z,17.63
2022-10-15T04:15:55.265Z,13.00
2022-10-15T04:18:22.324Z,12.95
2022-10-15T04:20:49.397Z,15.13
2022-10-15T04:23:16.954Z,15.73
2022-10-15T04:25:43.854Z,20.15
2022-10-15T04:28:10.494Z,16.42
2022-10-15T04:30:37.193Z,26.17
2022-10-15T04:33:03.934Z,19.52
2022-10-15T04:35:30.773Z,19.10
2022-10-15T04:37:59.602Z,17.88
2022-10-15T04:40:26.694Z,20.77
2022-10-15T04:42:53.372Z,22.33
2022-10-15T04:45:20.298Z,15.40
2022-10-15T04:47:47.016Z,18.58
2022-10-15T04:50:13.646Z,16.23
2022-10-15T04:52:40.546Z,19.92
2022-10-15T04:55:07.578Z,17.75
2022-10-15T04:57:34.281Z,17.70
2022-10-15T05:00:00.904Z,25.80
2022-10-15T05:02:28.169Z,14.77
2022-10-15T05:04:54.865Z,16.40
2022-10-15T05:07:21.956Z,19.80
2022-10-15T05:09:48.771Z,17.23
2022-10-15T05:12:15.470Z,15.98
2022-10-15T05:14:42.097Z,19.90
2022-10-15T05:17:08.750Z,17.77
2022-10-15T05:19:35.427Z,18.50
2022-10-15T05:22:02.064Z,17.20
2022-10-15T05:24:28.731Z,19.05
2022-10-15T05:26:55.372Z,18.02
2022-10-15T05:29:22.006Z,20.95
2022-10-15T05:31:50.831Z,14.13
2022-10-15T05:34:17.511Z,14.98
2022-10-15T05:39:28.554Z,18.58
2022-10-15T05:41:55.297Z,16.42
2022-10-15T05:44:21.946Z,15.88
2022-10-15T05:46:48.564Z,17.52
2022-10-15T05:49:15.366Z,13.80
2022-10-15T05:51:42.034Z,12.35
2022-10-15T05:54:08.730Z,18.67
2022-10-15T05:56:35.440Z,21.75
2022-10-15T05:59:03.310Z,20.30
2022-10-15T06:01:31.345Z,20.58
2022-10-15T06:03:58.009Z,14.60
2022-10-15T06:06:29.024Z,13.70
2022-10-15T06:08:55.904Z,14.15
2022-10-15T06:11:22.659Z,13.90
2022-10-15T06:13:49.366Z,18.55
2022-10-15T06:16:20.886Z,31.40
2022-10-15T06:18:52.485Z,18.23
2022-10-15T06:21:19.273Z,20.88
2022-10-15T06:23:45.900Z,15.68
2022-10-15T06:26:12.722Z,15.80
2022-10-15T06:28:40.079Z,19.08
2022-10-15T06:31:07.410Z,15.90
2022-10-15T06:33:34.622Z,16.02
2022-10-15T06:36:03.149Z,20.98
2022-10-15T06:38:29.824Z,27.58
2022-10-15T06:40:56.478Z,16.33
2022-10-15T06:43:23.761Z,16.98
2022-10-15T06:45:50.688Z,20.42
2022-10-15T06:48:18.146Z,13.38
2022-10-15T06:50:44.803Z,21.48
2022-10-15T06:53:11.466Z,15.38
2022-10-15T06:55:39.637Z,16.10
2022-10-15T06:58:06.353Z,11.82
2022-10-15T07:00:33.126Z,15.13
2022-10-15T07:03:07.253Z,19.67
2022-10-15T07:05:34.540Z,11.98
2022-10-15T07:08:01.555Z,14.20
2022-10-15T07:10:29.030Z,14.75
2022-10-15T07:12:55.777Z,18.15
2022-10-15T07:15:22.550Z,16.52
2022-10-15T07:17:56.657Z,18.23
2022-10-15T07:20:24.511Z,15.55
2022-10-15T07:22:52.286Z,16.10
2022-10-15T07:25:18.975Z,13.13
2022-10-15T07:27:45.665Z,19.10
2022-10-15T07:30:12.343Z,23.00
2022-10-15T07:32:39.105Z,20.85
2022-10-15T07:35:06.148Z,16.23
2022-10-15T07:37:33.198Z,19.02
2022-10-15T07:39:59.929Z,16.63
2022-10-15T07:42:26.802Z,18.48
2022-10-15T07:44:53.569Z,18.65
2022-10-15T07:47:20.253Z,20.33
2022-10-15T07:49:46.972Z,12.48
2022-10-15T07:52:13.601Z,13.43
2022-10-15T07:54:40.273Z,16.65
2022-10-15T07:57:10.095Z,11.60
2022-10-15T07:59:36.789Z,10.95
2022-10-15T08:02:03.474Z,14.43
2022-10-15T08:04:30.252Z,10.40
2022-10-15T08:06:58.359Z,17.75
2022-10-15T08:09:25.117Z,13.30
2022-10-15T08:11:51.754Z,11.60
2022-10-15T08:14:18.394Z,14.75
2022-10-15T08:16:45.038Z,14.77
2022-10-15T08:19:11.661Z,18.48
2022-10-15T08:21:38.359Z,23.17
2022-10-15T08:24:05.993Z,22.08
2022-10-15T08:26:32.682Z,22.20
2022-10-15T08:28:59.510Z,18.63
2022-10-15T08:31:26.306Z,21.08
2022-10-15T08:33:54.399Z,21.15
2022-10-15T08:36:21.224Z,18.50
2022-10-15T08:38:47.892Z,15.77
2022-10-15T08:41:32.601Z,15.80
2022-10-15T08:43:59.865Z,15.60
2022-10-15T08:46:31.058Z,18.35
2022-10-15T08:49:00.044Z,14.15
2022-10-15T08:53:58.477Z,10.32
2022-10-15T08:56:30.450Z,18.20
2022-10-15T08:59:15.411Z,13.05
2022-10-15T09:01:52.875Z,13.93
2022-10-15T09:04:53.006Z,13.93
2022-10-15T09:07:35.184Z,11.75
2022-10-15T09:10:10.504Z,9.35
2022-10-15T09:12:57.054Z,11.27
2022-10-15T09:15:27.746Z,13.07
2022-10-15T09:17:54.928Z,12.98
2022-10-15T09:20:26.873Z,13.40
2022-10-15T09:22:53.746Z,13.02
2022-10-15T09:25:23.045Z,12.88
2022-10-15T09:27:52.304Z,12.93
2022-10-15T09:30:46.363Z,10.55
2022-10-15T09:33:32.236Z,12.27
2022-10-15T09:36:07.909Z,13.27
2022-10-15T09:38:46.604Z,9.43
2022-10-15T09:41:56.489Z,16.30
2022-10-15T09:44:25.596Z,14.32
2022-10-15T09:46:52.464Z,13.88
2022-10-15T09:49:31.350Z,8.50
2022-10-15T09:52:11.879Z,11.55
2022-10-15T09:54:49.272Z,13.82
2022-10-15T09:57:17.585Z,17.95
2022-10-15T10:00:00.816Z,11.15
2022-10-15T10:02:28.293Z,13.45
2022-10-15T10:04:56.134Z,11.10
2022-10-15T10:07:37.683Z,17.23
2022-10-15T10:10:07.024Z,9.00
2022-10-15T10:12:37.595Z,12.52
2022-10-15T10:15:26.727Z,10.00
2022-10-15T10:17:54.457Z,15.57
2022-10-15T10:20:23.248Z,17.50
2022-10-15T10:22:53.777Z,14.48
2022-10-15T10:25:26.490Z,11.40
2022-10-15T10:28:04.460Z,14.35
2022-10-15T10:30:37.020Z,16.05
2022-10-15T10:33:04.057Z,12.73
2022-10-15T10:35:44.055Z,14.20
2022-10-15T10:38:25.747Z,11.10
2022-10-15T10:40:55.467Z,15.93
2022-10-15T10:43:24.954Z,8.93
2022-10-15T10:45:54.982Z,13.77
2022-10-15T10:48:39.131Z,17.25
2022-10-15T10:51:16.653Z,10.73
2022-10-15T10:53:59.640Z,8.98
2022-10-15T10:56:37.744Z,10.13
2022-10-15T10:59:14.286Z,11.77
2022-10-15T11:01:40.954Z,15.35
2022-10-15T11:04:16.971Z,13.07
2022-10-15T11:06:54.929Z,8.73
2022-10-15T11:09:55.394Z,11.30
2022-10-15T11:12:37.893Z,13.80
2022-10-15T11:15:29.201Z,11.02
2022-10-15T11:18:04.877Z,13.82
2022-10-15T11:21:06.762Z,14.95
2022-10-15T11:24:01.681Z,15.77
2022-10-15T11:27:22.344Z,9.57
2022-10-15T11:30:14.009Z,16.23
2022-10-15T11:33:05.746Z,11.07
2022-10-15T11:35:52.487Z,10.10
2022-10-15T11:38:29.654Z,11.77
2022-10-15T11:41:30.310Z,11.88
2022-10-15T11:44:21.369Z,11.13
2022-10-15T11:47:04.037Z,16.95
2022-10-15T11:49:54.388Z,12.60
2022-10-15T11:52:42.525Z,11.00
2022-10-15T11:55:21.781Z,17.38
2022-10-15T11:57:50.966Z,12.18
2022-10-15T12:00:41.302Z,11.43
2022-10-15T12:03:15.808Z,12.20
2022-10-15T12:05:50.741Z,11.98
2022-10-15T12:08:18.104Z,14.68
2022-10-15T12:11:10.390Z,16.52
2022-10-15T12:13:43.016Z,57.65
2022-10-15T12:16:19.668Z,15.88
2022-10-15T12:18:52.469Z,13.05
2022-10-15T12:21:40.770Z,15.27
2022-10-15T12:24:44.631Z,11.30
2022-10-15T12:27:20.405Z,16.98
2022-10-15T12:29:52.794Z,17.42
2022-10-15T12:32:38.416Z,10.20
2022-10-15T12:35:07.511Z,13.57
2022-10-15T12:37:36.111Z,18.15
2022-10-15T12:40:24.679Z,10.05
2022-10-15T12:42:56.049Z,13.80
2022-10-15T12:45:25.327Z,12.90
2022-10-15T12:48:03.879Z,10.27
2022-10-15T12:50:35.297Z,13.60
2022-10-15T12:53:09.357Z,11.68
2022-10-15T12:55:38.245Z,10.40
2022-10-15T12:58:45.016Z,14.40
2022-10-15T13:01:14.634Z,12.50
2022-10-15T13:03:44.345Z,11.52
2022-10-15T13:06:20.497Z,15.45
2022-10-15T13:08:54.921Z,15.20
2022-10-15T13:11:30.361Z,19.77
2022-10-15T13:14:25.239Z,22.83
2022-10-15T13:16:51.947Z,16.30
2022-10-15T13:19:30.874Z,19.70
2022-10-15T13:22:02.864Z,14.80
2022-10-15T13:24:38.476Z,14.23
2022-10-15T13:27:15.403Z,15.70
2022-10-15T13:29:57.230Z,15.82
2022-10-15T13:32:26.262Z,14.90
2022-10-15T13:34:53.811Z,11.57
2022-10-15T13:37:26.991Z,21.08
2022-10-15T13:39:53.763Z,15.65
2022-10-15T13:42:23.388Z,12.73
2022-10-15T13:45:03.238Z,13.55
2022-10-15T13:47:34.459Z,12.40
2022-10-15T13:50:13.015Z,16.42
2022-10-15T13:53:05.738Z,10.90
2022-10-15T13:55:36.511Z,15.63
2022-10-15T13:58:07.509Z,16.13
2022-10-15T14:00:36.363Z,14.50
2022-10-15T14:03:26.150Z,9.90
2022-10-15T14:05:54.029Z,13.30
2022-10-15T14:08:29.134Z,12.45
2022-10-15T14:10:58.716Z,18.73
2022-10-15T14:13:27.036Z,16.20
2022-10-15T14:16:14.493Z,11.35
2022-10-15T14:18:48.225Z,14.90
2022-10-15T14:21:18.811Z,12.15
2022-10-15T14:23:47.067Z,9.95
2022-10-15T14:26:15.299Z,13.13
2022-10-15T14:28:43.387Z,17.08
2022-10-15T14:31:29.594Z,15.95
2022-10-15T14:33:56.274Z,11.90
2022-10-15T14:36:25.859Z,14.35
2022-10-15T14:38:53.740Z,13.43
2022-10-15T14:41:25.817Z,15.05
2022-10-15T14:44:04.118Z,13.27
2022-10-15T14:46:37.916Z,12.27
2022-10-15T14:49:04.925Z,12.65
2022-10-15T14:51:31.639Z,13.52
2022-10-15T14:53:58.915Z,10.15
2022-10-15T14:56:30.987Z,15.13
2022-10-15T14:58:58.300Z,13.75
2022-10-15T15:01:27.749Z,17.75
2022-10-15T15:03:56.065Z,18.00
2022-10-15T15:06:23.237Z,16.50
2022-10-15T15:08:50.035Z,14.75
2022-10-15T15:11:20.254Z,12.98
2022-10-15T15:13:47.813Z,12.00
2022-10-15T15:16:16.335Z,14.95
2022-10-15T15:18:44.075Z,15.93
2022-10-15T15:21:18.011Z,10.93
2022-10-15T15:23:44.678Z,18.95
2022-10-15T15:26:11.608Z,17.63
2022-10-15T15:28:38.327Z,12.18
2022-10-15T15:31:07.714Z,16.60
2022-10-15T15:33:34.849Z,11.32
2022-10-15T15:36:01.421Z,14.25
2022-10-15T15:38:31.388Z,15.68
2022-10-15T15:41:11.532Z,15.57
2022-10-15T15:43:38.240Z,17.73
2022-10-15T15:46:04.959Z,15.73
2022-10-15T15:48:32.030Z,16.48
2022-10-15T15:51:06.262Z,14.30
2022-10-15T15:53:33.424Z,14.48
2022-10-15T15:56:00.033Z,17.77
2022-10-15T15:58:26.702Z,13.90
2022-10-15T16:00:53.359Z,15.43
2022-10-15T16:03:20.052Z,14.65
2022-10-15T16:05:47.292Z,14.02
2022-10-15T16:08:14.006Z,14.30
2022-10-15T16:10:40.753Z,13.70
2022-10-15T16:13:07.426Z,12.65
2022-10-15T16:15:34.068Z,14.48
2022-10-15T16:18:00.770Z,13.75
2022-10-15T16:20:27.495Z,12.80
2022-10-15T16:22:54.544Z,11.30
2022-10-15T16:25:22.524Z,12.88
2022-10-15T16:27:51.995Z,15.73
2022-10-15T16:30:19.431Z,12.35
2022-10-15T16:32:46.289Z,14.23
2022-10-15T16:35:12.951Z,13.93
2022-10-15T16:37:39.680Z,11.25
2022-10-15T16:40:07.066Z,11.98
2022-10-15T16:42:33.696Z,13.40
2022-10-15T16:45:00.341Z,11.43
2022-10-15T16:47:27.398Z,17.02
2022-10-15T16:49:55.561Z,17.85
2022-10-15T16:52:22.508Z,12.43
2022-10-15T16:54:49.451Z,11.20
2022-10-15T16:57:16.137Z,12.85
2022-10-15T16:59:42.834Z,13.32
2022-10-15T17:02:10.077Z,11.93
2022-10-15T17:04:36.734Z,12.45
2022-10-15T17:07:03.478Z,16.00
2022-10-15T17:09:31.193Z,12.45
2022-10-15T17:11:57.839Z,10.82
2022-10-15T17:14:24.470Z,12.18
2022-10-15T17:16:52.638Z,13.30
2022-10-15T17:19:21.958Z,15.27
2022-10-15T17:21:48.586Z,13.50
2022-10-15T17:24:16.736Z,12.05
2022-10-15T17:26:44.429Z,12.93
2022-10-15T17:29:14.064Z,11.70
2022-10-15T17:31:40.725Z,12.25
2022-10-15T17:34:09.494Z,14.05
2022-10-15T17:36:42.584Z,17.70
2022-10-15T17:39:09.947Z,16.48
2022-10-15T17:41:36.599Z,12.57
2022-10-15T17:44:03.780Z,10.88
2022-10-15T17:46:31.084Z,10.43
2022-10-15T17:48:58.803Z,12.40
2022-10-15T17:51:29.410Z,13.05
2022-10-15T17:53:56.812Z,12.07
2022-10-15T17:56:26.098Z,15.70
2022-10-15T17:58:52.968Z,13.98
2022-10-15T18:01:33.362Z,10.77
2022-10-15T18:04:06.733Z,13.50
2022-10-15T18:06:33.411Z,10.10
2022-10-15T18:09:00.444Z,11.35
2022-10-15T18:11:29.998Z,12.15
2022-10-15T18:13:56.722Z,15.52
2022-10-15T18:16:23.509Z,10.38
2022-10-15T18:18:50.595Z,11.57
2022-10-15T18:21:18.489Z,15.27
2022-10-15T18:23:46.753Z,14.48
2022-10-15T18:26:20.045Z,11.73
2022-10-15T18:28:48.513Z,13.80
2022-10-15T18:31:15.701Z,14.70
2022-10-15T18:33:44.096Z,17.50
2022-10-15T18:36:14.296Z,14.90
2022-10-15T18:38:43.441Z,15.25
2022-10-15T18:43:40.656Z,13.10
2022-10-15T18:46:07.373Z,15.50
2022-10-15T18:48:34.036Z,12.98
2022-10-15T18:51:01.449Z,12.75
2022-10-15T18:53:28.586Z,10.27
2022-10-15T18:55:55.317Z,13.60
2022-10-15T18:58:21.938Z,15.40
2022-10-15T19:00:48.601Z,10.45
2022-10-15T19:03:15.268Z,19.15
2022-10-15T19:05:43.370Z,16.00
2022-10-15T19:08:10.076Z,12.60
2022-10-15T19:10:36.773Z,10.85
2022-10-15T19:13:03.406Z,12.20
2022-10-15T19:15:30.146Z,11.35
2022-10-15T19:17:57.023Z,15.52
2022-10-15T19:20:24.124Z,24.20
2022-10-15T19:22:50.775Z,13.38
2022-10-15T19:25:17.524Z,19.05
2022-10-15T19:27:44.226Z,10.45
2022-10-15T19:30:14.873Z,13.60
2022-10-15T19:32:41.489Z,15.90
2022-10-15T19:35:08.758Z,15.82
2022-10-15T19:37:35.790Z,12.60
2022-10-15T19:40:02.440Z,14.55
2022-10-15T19:42:30.457Z,15.77
2022-10-15T19:44:57.133Z,10.60
2022-10-15T19:47:23.972Z,15.35
2022-10-15T19:49:51.026Z,9.98
2022-10-15T19:52:17.776Z,17.58
2022-10-15T19:54:44.480Z,14.32
2022-10-15T19:57:11.370Z,13.50
2022-10-15T19:59:38.033Z,13.88
2022-10-15T20:02:04.665Z,12.52
2022-10-15T20:04:31.309Z,12.18
2022-10-15T20:06:57.924Z,10.95
2022-10-15T20:09:24.579Z,12.32
2022-10-15T20:11:51.246Z,17.20
2022-10-15T20:14:17.974Z,10.88
2022-10-15T20:16:44.635Z,11.15
2022-10-15T20:19:12.615Z,11.10
2022-10-15T20:21:39.332Z,13.95
2022-10-15T20:24:06.131Z,15.73
2022-10-15T20:26:33.199Z,18.33
2022-10-15T20:29:00.002Z,12.25
2022-10-15T20:31:32.136Z,11.93
2022-10-15T20:33:59.406Z,16.65
2022-10-15T20:36:27.420Z,20.27
2022-10-15T20:38:55.600Z,22.58
2022-10-15T20:41:22.236Z,26.50
2022-10-15T20:43:54.260Z,20.42
2022-10-15T20:46:58.614Z,22.25
2022-10-15T20:49:30.274Z,22.25
2022-10-15T20:51:57.836Z,22.67
2022-10-15T20:54:24.467Z,25.08
2022-10-15T20:56:51.650Z,24.75
2022-10-15T20:59:18.995Z,25.13
2022-10-15T21:01:45.695Z,26.55
2022-10-15T21:04:12.394Z,25.45
2022-10-15T21:06:39.584Z,22.88
2022-10-15T21:09:06.341Z,29.98
2022-10-15T21:11:33.056Z,25.38
2022-10-15T21:14:00.429Z,28.33
2022-10-15T21:16:28.446Z,25.60
2022-10-15T21:18:55.497Z,22.60
2022-10-15T21:21:22.173Z,29.55
2022-10-15T21:23:48.785Z,27.65
2022-10-15T21:26:17.262Z,29.88
2022-10-15T21:28:44.080Z,29.90
2022-10-15T21:31:16.269Z,24.02
2022-10-15T21:33:43.972Z,28.48
2022-10-15T21:36:14.390Z,24.30
2022-10-15T21:38:41.245Z,24.95
2022-10-15T21:41:08.746Z,25.08
2022-10-15T21:43:35.834Z,23.02
2022-10-15T21:46:11.076Z,28.25
2022-10-15T21:48:38.298Z,25.25
2022-10-15T21:51:08.428Z,27.95
2022-10-15T21:53:36.709Z,25.70
2022-10-15T21:58:32.435Z,24.75
2022-10-15T22:01:07.815Z,28.27
2022-10-15T22:03:34.538Z,24.95
2022-10-15T22:06:01.570Z,28.48
2022-10-15T22:08:28.914Z,23.98
2022-10-15T22:10:55.546Z,24.17
2022-10-15T22:13:22.190Z,26.15
2022-10-15T22:15:48.839Z,25.38
2022-10-15T22:18:15.510Z,25.80
2022-10-15T22:23:13.660Z,27.25
2022-10-15T22:25:41.376Z,28.92
2022-10-15T22:28:08.030Z,32.95
2022-10-15T22:30:35.955Z,22.15
2022-10-15T22:33:02.693Z,29.52
2022-10-15T22:35:29.701Z,26.15
2022-10-15T22:37:58.085Z,30.77
2022-10-15T22:40:24.943Z,26.63
2022-10-15T22:42:51.545Z,27.25
2022-10-15T22:45:18.200Z,26.83
2022-10-15T22:47:44.856Z,23.27
2022-10-15T22:50:11.568Z,24.85
2022-10-15T22:52:38.221Z,24.20
2022-10-15T22:55:05.236Z,21.70
2022-10-15T22:57:31.869Z,22.23
2022-10-15T22:59:59.445Z,22.27
2022-10-15T23:02:26.474Z,24.83
2022-10-15T23:04:53.285Z,20.63
2022-10-15T23:07:19.917Z,19.73
2022-10-15T23:09:46.536Z,20.98
2022-10-15T23:12:13.212Z,22.95
2022-10-15T23:14:39.829Z,24.35
2022-10-15T23:17:06.541Z,22.60
2022-10-15T23:19:33.333Z,20.63
2022-10-15T23:22:02.690Z,20.80
2022-10-15T23:24:30.630Z,19.42
2022-10-15T23:26:57.308Z,22.23
2022-10-15T23:29:25.632Z,19.17
2022-10-15T23:31:52.963Z,22.27
2022-10-15T23:34:24.705Z,17.40
2022-10-15T23:36:52.063Z,17.27
2022-10-15T23:39:21.775Z,20.27
2022-10-15T23:41:49.437Z,18.77
2022-10-15T23:44:16.286Z,18.02
2022-10-15T23:46:43.024Z,16.45
2022-10-15T23:49:09.975Z,15.52
2022-10-15T23:51:36.954Z,18.80
2022-10-15T23:54:08.619Z,18.55
2022-10-15T23:56:35.279Z,17.63
2022-10-15T23:59:01.953Z,18.38
